Terminal Aerodrome Forecast
Issued by NWS Duluth, MN

Home | Current Version | Previous Version | Text Only | Print | Product List | Glossary On
Versions: 1 2 3 4 5 6 7 8 9 10 11 12 13 14 15 16 17 18 19 20 21 22 23 24
000
FTUS43 KDLH 151120
TAFINL
TAF
KINL 151120Z 1512/1612 30007KT 1SM BR OVC004
     FM151500 30010G17KT 5SM -SHSN OVC007
     FM151800 33013G21KT 4SM -SHSN OVC012
     FM160100 35010KT P6SM BKN020
     FM160600 03005KT P6SM SCT020=

USA.gov is the U.S. government's official web portal to all federal, state and local government web resources and services.